LUR weather

Cape Lisburne LRRS Airport
Cape Lisburne, Alaska, United States

Public forecast

Using degrees Fahrenheit for public forecast. Weather courtesy of forecast.io.

METAR (pilot weather report)

Retrieved 2019/05/24 19:36 UTC (0 seconds ago):

PALU 241936Z AUTO 13030G37KT 070V200 10SM TS CLR 02/00 A3010

TAF (pilot weather forecast)

Closest forecast is Ralph Wien Memorial Airport, 143.4 nm (265.6 km) SE. Retrieved 2019/05/24 18:42 UTC (36 minutes ago):

TAF PAOT 241741Z 2418/2518 25008KT P6SM OVC003 FM242000 30012KT 6SM BR SCT004 OVC007